Time;durP1;ratioP1;P1;durP2;ratioP2;P2;SDS_P1;SDS_P2;PMS_P1;PMS_P2;Temp;Humidity;BMP_temperature;BMP_pressure;BME280_temperature;BME280_humidity;BME280_pressure;Samples;Min_cycle;Max_cycle;Signal;HPM_P1;HPM_P2
2021/04/06 00:02:24;;;;;;;0.98;0.50;;;0.60;76.20;;;;;;4904486;29;20044;-61
2021/04/06 00:04:53;;;;;;;2.47;0.60;;;0.60;76.10;;;;;;4906876;29;20053;-62
2021/04/06 00:07:22;;;;;;;3.42;0.43;;;0.70;76.30;;;;;;4907300;29;20040;-62
2021/04/06 00:09:53;;;;;;;3.10;0.85;;;0.70;76.10;;;;;;4908197;29;20052;-62
2021/04/06 00:12:23;;;;;;;0.82;0.40;;;0.60;75.90;;;;;;4907324;29;20051;-61
2021/04/06 00:14:52;;;;;;;1.17;0.43;;;0.60;75.80;;;;;;4905469;29;20059;-62
2021/04/06 00:17:20;;;;;;;0.73;0.32;;;0.60;75.30;;;;;;4905645;29;20248;-62
2021/04/06 00:19:48;;;;;;;4.10;0.80;;;0.60;75.30;;;;;;4906004;29;20079;-61
2021/04/06 00:22:18;;;;;;;1.65;0.30;;;0.70;75.40;;;;;;4904164;29;20359;-60
2021/04/06 00:24:48;;;;;;;1.17;0.77;;;0.70;75.30;;;;;;4905292;29;20060;-62
2021/04/06 00:27:19;;;;;;;5.03;1.08;;;0.70;75.30;;;;;;4905615;29;20334;-62
2021/04/06 00:29:51;;;;;;;3.93;0.73;;;0.70;75.20;;;;;;4905903;29;20059;-61
2021/04/06 00:32:19;;;;;;;5.47;0.63;;;0.70;75.20;;;;;;4904629;29;20078;-61
2021/04/06 00:34:46;;;;;;;3.30;0.50;;;0.70;75.50;;;;;;4906951;29;20057;-61
2021/04/06 00:37:15;;;;;;;0.77;0.50;;;0.60;75.50;;;;;;4904771;29;20064;-62
2021/04/06 00:39:43;;;;;;;2.47;0.88;;;0.60;75.50;;;;;;4904968;29;20052;-61
2021/04/06 00:42:13;;;;;;;0.55;0.32;;;0.60;75.00;;;;;;4904558;29;20128;-61
2021/04/06 00:44:43;;;;;;;4.85;0.90;;;0.60;75.10;;;;;;4905156;29;20056;-62
2021/04/06 00:47:14;;;;;;;4.23;0.80;;;0.60;75.20;;;;;;4905647;29;20056;-62
2021/04/06 00:49:42;;;;;;;;;;;0.60;74.70;;;;;;4905550;29;20113;-62
2021/04/06 00:52:11;;;;;;;0.98;0.73;;;0.60;75.20;;;;;;4904571;29;19926;-62
2021/04/06 00:54:40;;;;;;;13.63;1.17;;;0.70;75.00;;;;;;4905054;29;20064;-61
2021/04/06 00:57:07;;;;;;;1.20;0.47;;;0.70;74.10;;;;;;4903981;29;20128;-62
2021/04/06 00:59:34;;;;;;;4.38;0.32;;;0.70;74.60;;;;;;4903501;29;20112;-62
2021/04/06 01:02:03;;;;;;;0.32;0.30;;;0.70;74.00;;;;;;4902223;29;20099;-62
2021/04/06 01:04:36;;;;;;;3.63;0.40;;;0.80;72.80;;;;;;4907167;29;20048;-61
2021/04/06 01:07:07;;;;;;;0.50;0.13;;;0.70;73.40;;;;;;4907057;29;20295;-62
2021/04/06 01:09:42;;;;;;;0.17;0.00;;;0.80;73.70;;;;;;4905808;29;20335;-62
2021/04/06 01:12:10;;;;;;;7.45;0.88;;;0.60;75.40;;;;;;4906871;29;20460;-62
2021/04/06 01:14:38;;;;;;;7.07;0.55;;;0.60;75.90;;;;;;4907295;29;20060;-62
2021/04/06 01:17:06;;;;;;;4.45;0.30;;;0.40;76.90;;;;;;4906850;29;20414;-62
2021/04/06 01:19:35;;;;;;;0.55;0.28;;;0.40;77.10;;;;;;4907314;29;20213;-63
2021/04/06 01:22:05;;;;;;;0.73;0.38;;;0.40;76.60;;;;;;4907357;29;20060;-62
2021/04/06 01:24:33;;;;;;;1.00;0.30;;;0.40;76.60;;;;;;4906893;29;20056;-62
2021/04/06 01:27:19;;;;;;;5.49;0.82;;;0.40;76.20;;;;;;2523670;29;10002998;-61
2021/04/06 01:29:50;;;;;;;0.52;0.50;;;0.40;75.70;;;;;;3891224;29;10001275;-62
2021/04/06 01:32:19;;;;;;;0.75;0.50;;;0.40;75.00;;;;;;4906594;29;20060;-62
2021/04/06 01:34:47;;;;;;;6.28;0.52;;;0.40;74.80;;;;;;4905807;29;20066;-61
2021/04/06 01:37:19;;;;;;;9.90;0.77;;;0.40;74.40;;;;;;4906422;29;20079;-62
2021/04/06 01:39:49;;;;;;;5.60;0.55;;;0.40;74.20;;;;;;4906510;29;20079;-62
2021/04/06 01:42:16;;;;;;;3.30;0.25;;;0.50;73.80;;;;;;4906649;29;20056;-62
2021/04/06 01:44:47;;;;;;;4.38;0.45;;;0.50;73.40;;;;;;4906164;29;20394;-62
2021/04/06 01:47:16;;;;;;;1.60;0.55;;;0.50;73.50;;;;;;4907282;29;20065;-62
2021/04/06 01:49:44;;;;;;;4.53;0.55;;;0.50;73.60;;;;;;4906895;29;20267;-61
2021/04/06 01:52:13;;;;;;;1.13;0.82;;;0.50;73.20;;;;;;4906311;29;20072;-61
2021/04/06 01:54:41;;;;;;;0.30;0.20;;;0.60;72.90;;;;;;4906871;29;20092;-62
2021/04/06 01:57:13;;;;;;;4.75;0.40;;;0.60;73.20;;;;;;4906625;29;20083;-61
2021/04/06 01:59:45;;;;;;;2.33;0.95;;;0.60;72.70;;;;;;4905632;29;20062;-62
2021/04/06 02:02:12;;;;;;;2.65;0.65;;;0.60;72.90;;;;;;4902832;29;20041;-61
2021/04/06 02:04:42;;;;;;;1.17;0.15;;;0.60;72.60;;;;;;4905905;29;20359;-62
2021/04/06 02:07:13;;;;;;;8.47;1.07;;;0.60;72.20;;;;;;4904878;29;20055;-61
2021/04/06 02:09:41;;;;;;;1.92;0.80;;;0.60;72.70;;;;;;4905263;29;20382;-63
2021/04/06 02:12:09;;;;;;;2.40;0.47;;;0.60;72.70;;;;;;4904756;29;20132;-62
2021/04/06 02:14:36;;;;;;;2.80;1.35;;;0.50;72.60;;;;;;4904837;29;20075;-61
2021/04/06 02:17:07;;;;;;;3.00;1.65;;;0.60;73.00;;;;;;4904654;29;20131;-62
2021/04/06 02:19:36;;;;;;;7.18;0.85;;;0.60;72.70;;;;;;4904778;29;20053;-61
2021/04/06 02:22:10;;;;;;;6.85;2.03;;;0.60;72.80;;;;;;4904346;29;20286;-62
2021/04/06 02:24:41;;;;;;;1.63;0.85;;;0.60;73.10;;;;;;4904453;29;20375;-61
2021/04/06 02:27:15;;;;;;;1.15;0.30;;;0.60;73.10;;;;;;4903418;29;20068;-62
2021/04/06 02:29:43;;;;;;;6.93;0.63;;;0.60;73.60;;;;;;4901068;29;20371;-61
2021/04/06 02:32:18;;;;;;;2.42;0.73;;;0.50;73.60;;;;;;4904638;29;20299;-60
2021/04/06 02:34:48;;;;;;;4.72;0.60;;;0.60;73.80;;;;;;4905481;29;20391;-62
2021/04/06 02:37:17;;;;;;;1.63;0.50;;;0.60;73.80;;;;;;4904011;29;20061;-61
2021/04/06 02:39:46;;;;;;;1.20;0.40;;;0.60;73.80;;;;;;4905345;29;20526;-61
2021/04/06 02:42:21;;;;;;;8.35;1.02;;;0.60;73.70;;;;;;4904881;29;20376;-62
2021/04/06 02:44:49;;;;;;;2.38;0.85;;;0.50;74.30;;;;;;4896624;29;20060;-62
2021/04/06 02:47:17;;;;;;;0.93;0.35;;;0.50;74.30;;;;;;4904360;29;20084;-62
2021/04/06 02:49:45;;;;;;;5.35;2.42;;;0.50;74.10;;;;;;4912363;29;20068;-61
2021/04/06 02:52:14;;;;;;;0.93;0.40;;;0.60;73.60;;;;;;4906153;29;20084;-62
2021/04/06 02:54:42;;;;;;;1.92;0.32;;;0.60;73.80;;;;;;4905817;29;20059;-61
2021/04/06 02:57:23;;;;;;;0.20;0.20;;;0.60;74.30;;;;;;4907996;29;20149;-61
2021/04/06 02:59:50;;;;;;;0.93;0.70;;;0.60;74.00;;;;;;4908302;29;20076;-62
2021/04/06 03:02:18;;;;;;;1.00;0.65;;;0.60;74.60;;;;;;4905094;29;20052;-61
2021/04/06 03:04:46;;;;;;;2.60;0.30;;;0.60;75.40;;;;;;4908670;29;20490;-61
2021/04/06 03:07:21;;;;;;;0.45;0.20;;;0.60;76.40;;;;;;4909741;29;20060;-62
2021/04/06 03:09:56;;;;;;;1.75;0.52;;;0.40;77.60;;;;;;4908689;29;20060;-61
2021/04/06 03:12:29;;;;;;;0.50;0.45;;;0.50;78.40;;;;;;4908348;29;20442;-62
2021/04/06 03:14:57;;;;;;;2.22;0.40;;;0.60;77.60;;;;;;4908172;29;20053;-62
2021/04/06 03:17:27;;;;;;;1.50;0.47;;;0.50;77.80;;;;;;4908458;29;20360;-61
2021/04/06 03:19:58;;;;;;;2.30;1.20;;;0.40;77.40;;;;;;4901925;29;20056;-62
2021/04/06 03:22:26;;;;;;;4.38;0.30;;;0.50;76.80;;;;;;4908833;29;20623;-62
2021/04/06 03:24:53;;;;;;;3.50;0.32;;;0.60;76.60;;;;;;4909241;29;20115;-62
2021/04/06 03:27:29;;;;;;;2.47;0.80;;;0.70;75.80;;;;;;4908933;29;20052;-62
2021/04/06 03:29:56;;;;;;;6.55;0.60;;;0.70;75.50;;;;;;4909243;29;20080;-62
2021/04/06 03:32:24;;;;;;;1.58;0.20;;;0.80;75.40;;;;;;4908222;29;20751;-61
2021/04/06 03:34:52;;;;;;;4.53;1.10;;;0.80;75.50;;;;;;4908896;29;20064;-61
2021/04/06 03:37:21;;;;;;;3.45;1.50;;;0.80;75.60;;;;;;4908081;29;20403;-61
2021/04/06 03:39:48;;;;;;;3.30;0.45;;;0.80;75.90;;;;;;4909478;29;20104;-62
2021/04/06 03:42:22;;;;;;;0.90;0.20;;;0.80;75.40;;;;;;4907393;29;20076;-61
2021/04/06 03:44:50;;;;;;;2.92;0.63;;;0.90;76.10;;;;;;4908444;29;20060;-62
2021/04/06 03:47:17;;;;;;;2.47;0.52;;;0.90;75.70;;;;;;4906133;29;20407;-62
2021/04/06 03:49:48;;;;;;;1.80;0.47;;;1.00;75.90;;;;;;4908352;29;20356;-62
2021/04/06 03:52:16;;;;;;;1.33;0.38;;;1.00;75.50;;;;;;4906853;29;20415;-61
2021/04/06 03:54:45;;;;;;;1.25;0.45;;;1.00;75.10;;;;;;4906611;29;20060;-61
2021/04/06 03:57:34;;;;;;;1.77;0.50;;;1.00;75.20;;;;;;4906196;29;20065;-61
2021/04/06 04:00:04;;;;;;;1.52;0.52;;;1.00;76.00;;;;;;4905616;29;20052;-62
2021/04/06 04:02:31;;;;;;;2.10;0.60;;;1.00;75.70;;;;;;4905860;29;20056;-62
2021/04/06 04:04:59;;;;;;;4.55;1.70;;;1.10;75.90;;;;;;4905851;29;20127;-62
2021/04/06 04:07:26;;;;;;;3.65;1.63;;;1.10;75.40;;;;;;4919343;29;20383;-63
2021/04/06 04:09:52;;;;;;;3.72;1.10;;;1.20;75.70;;;;;;4905593;29;20056;-62
2021/04/06 04:12:19;;;;;;;2.78;0.85;;;1.20;75.40;;;;;;4905835;29;20052;-62
2021/04/06 04:14:46;;;;;;;2.60;0.52;;;1.20;75.30;;;;;;4905830;29;20084;-62
2021/04/06 04:17:14;;;;;;;0.88;0.50;;;1.20;75.70;;;;;;4904843;29;20132;-62
2021/04/06 04:19:41;;;;;;;0.98;0.32;;;1.10;76.50;;;;;;4905164;29;20123;-61
2021/04/06 04:22:08;;;;;;;3.75;0.90;;;1.10;76.10;;;;;;4905488;29;20066;-62
2021/04/06 04:24:35;;;;;;;1.80;0.88;;;0.90;77.00;;;;;;4911744;29;20378;-62
2021/04/06 04:27:02;;;;;;;6.15;1.02;;;0.90;77.40;;;;;;4904986;29;20123;-62
2021/04/06 04:29:35;;;;;;;2.38;0.60;;;1.00;77.30;;;;;;4906036;29;20052;-62
2021/04/06 04:32:12;;;;;;;3.55;1.20;;;1.10;77.80;;;;;;4905704;29;20056;-62
2021/04/06 04:34:39;;;;;;;0.75;0.30;;;1.10;78.30;;;;;;4904877;29;20060;-62
2021/04/06 04:37:06;;;;;;;4.70;1.27;;;1.10;78.30;;;;;;4905029;29;20052;-61
2021/04/06 04:39:33;;;;;;;1.08;0.82;;;1.10;78.70;;;;;;4905257;29;20056;-62
2021/04/06 04:42:00;;;;;;;2.17;0.68;;;1.10;78.90;;;;;;4906813;29;20334;-61
2021/04/06 04:44:28;;;;;;;1.70;0.60;;;1.10;79.10;;;;;;4906485;29;20063;-63
2021/04/06 04:46:55;;;;;;;2.42;1.20;;;1.20;79.60;;;;;;4906830;29;20076;-61
2021/04/06 04:49:22;;;;;;;2.47;1.08;;;1.20;79.80;;;;;;4906403;29;20083;-62
2021/04/06 04:51:51;;;;;;;8.15;1.38;;;1.30;79.40;;;;;;4907250;29;20057;-62
2021/04/06 04:54:23;;;;;;;1.50;0.70;;;1.20;79.60;;;;;;4906945;29;20052;-62
2021/04/06 04:56:51;;;;;;;2.53;1.02;;;1.30;80.00;;;;;;4920932;29;20073;-62
2021/04/06 04:59:20;;;;;;;2.53;0.98;;;1.40;79.60;;;;;;4898005;29;20068;-62
2021/04/06 05:01:48;;;;;;;2.85;0.70;;;1.40;79.20;;;;;;4900980;29;20064;-62
2021/04/06 05:04:19;;;;;;;3.85;0.43;;;1.30;79.30;;;;;;4907095;29;20100;-62
2021/04/06 05:06:47;;;;;;;3.92;1.30;;;1.30;79.80;;;;;;4907155;29;20557;-62
2021/04/06 05:09:16;;;;;;;2.22;0.70;;;1.30;79.90;;;;;;4906448;29;20086;-62
2021/04/06 05:11:43;;;;;;;6.38;1.17;;;1.30;80.30;;;;;;4920559;29;20069;-64
2021/04/06 05:14:10;;;;;;;3.03;1.08;;;1.30;80.10;;;;;;4906957;29;20052;-62
2021/04/06 05:16:38;;;;;;;3.80;1.60;;;1.40;80.10;;;;;;4907245;29;20052;-61
2021/04/06 05:19:05;;;;;;;1.58;0.75;;;1.40;80.30;;;;;;4904988;29;20052;-62
2021/04/06 05:21:33;;;;;;;2.22;0.80;;;1.50;80.10;;;;;;4906758;29;20052;-62
2021/04/06 05:24:01;;;;;;;3.47;0.77;;;1.50;80.30;;;;;;4920973;29;20156;-62
2021/04/06 05:26:31;;;;;;;1.45;0.63;;;1.50;80.10;;;;;;4905789;29;20059;-62
2021/04/06 05:28:58;;;;;;;4.93;0.82;;;1.70;79.90;;;;;;4906235;29;20048;-61
2021/04/06 05:31:26;;;;;;;12.48;1.40;;;1.70;79.90;;;;;;4906184;29;21164;-62
2021/04/06 05:33:54;;;;;;;4.75;0.95;;;1.80;79.60;;;;;;4906378;29;20060;-62
2021/04/06 05:36:22;;;;;;;2.45;0.80;;;1.80;79.20;;;;;;4904936;29;20052;-61
2021/04/06 05:38:50;;;;;;;8.52;1.23;;;1.80;79.20;;;;;;4907063;29;20364;-62
2021/04/06 05:41:19;;;;;;;2.17;0.98;;;1.90;78.70;;;;;;4905650;29;20395;-62
2021/04/06 05:43:49;;;;;;;3.75;1.05;;;1.90;79.00;;;;;;4904604;29;20060;-62
2021/04/06 05:46:17;;;;;;;3.35;1.27;;;1.90;78.90;;;;;;4905160;29;20045;-62
2021/04/06 05:48:46;;;;;;;4.90;1.63;;;2.10;78.50;;;;;;4896675;29;20124;-63
2021/04/06 05:51:17;;;;;;;3.60;0.90;;;2.20;78.00;;;;;;4904897;29;20049;-63
2021/04/06 05:53:44;;;;;;;3.38;1.23;;;2.10;78.10;;;;;;4904452;29;20052;-62
2021/04/06 05:56:13;;;;;;;1.35;0.77;;;2.10;78.00;;;;;;4904686;29;20128;-62
2021/04/06 05:58:41;;;;;;;3.90;1.25;;;2.00;77.90;;;;;;4909725;29;20052;-62
2021/04/06 06:01:10;;;;;;;6.00;0.93;;;2.10;77.80;;;;;;4901168;29;20056;-63
2021/04/06 06:03:44;;;;;;;4.50;1.30;;;2.10;77.40;;;;;;4904330;29;20091;-63
2021/04/06 06:06:14;;;;;;;2.15;0.88;;;2.20;77.50;;;;;;4904214;29;20075;-63
2021/04/06 06:08:46;;;;;;;2.35;1.20;;;2.20;77.40;;;;;;4904285;29;20267;-62
2021/04/06 06:11:14;;;;;;;3.33;0.70;;;2.20;77.40;;;;;;4903951;29;20060;-62
2021/04/06 06:13:42;;;;;;;3.17;1.58;;;2.20;77.60;;;;;;4905439;29;20052;-62
2021/04/06 06:16:13;;;;;;;2.58;1.20;;;2.20;77.90;;;;;;4904528;29;20161;-61
2021/04/06 06:19:02;;;;;;;3.92;1.08;;;2.20;77.90;;;;;;4903688;29;20051;-61
2021/04/06 06:21:44;;;;;;;4.28;1.00;;;2.20;77.60;;;;;;4903139;29;20213;-62
2021/04/06 06:24:22;;;;;;;1.30;0.70;;;2.30;77.60;;;;;;4904309;29;20057;-62
2021/04/06 06:26:50;;;;;;;1.25;0.70;;;2.40;77.00;;;;;;4902682;29;20072;-62
2021/04/06 06:29:21;;;;;;;1.00;0.60;;;2.50;77.10;;;;;;4905002;29;20057;-61
2021/04/06 06:31:50;;;;;;;;;;;2.70;76.70;;;;;;4906807;29;20067;-62
2021/04/06 06:34:32;;;;;;;1.17;0.40;;;2.70;76.00;;;;;;4909104;29;19926;-62
2021/04/06 06:37:09;;;;;;;4.18;1.10;;;2.70;76.00;;;;;;4908899;29;20065;-61
2021/04/06 06:39:38;;;;;;;1.85;0.80;;;2.70;76.70;;;;;;4907811;29;20060;-62
2021/04/06 06:42:13;;;;;;;3.05;0.93;;;2.80;76.60;;;;;;4909014;29;20064;-61
2021/04/06 06:44:45;;;;;;;3.97;0.77;;;2.80;75.80;;;;;;4908141;29;20244;-62
2021/04/06 06:47:19;;;;;;;2.78;1.38;;;3.00;75.90;;;;;;4909728;29;20064;-62
2021/04/06 06:49:47;;;;;;;1.92;0.75;;;3.00;75.10;;;;;;4909044;29;20061;-62
2021/04/06 06:52:31;;;;;;;4.20;1.05;;;2.90;75.30;;;;;;4909049;29;20056;-63
2021/04/06 06:55:02;;;;;;;2.75;1.20;;;2.90;75.10;;;;;;4909546;29;20252;-62
2021/04/06 06:57:33;;;;;;;3.35;1.27;;;3.00;75.20;;;;;;4910125;29;20055;-62
2021/04/06 07:00:10;;;;;;;1.75;0.90;;;3.10;74.90;;;;;;4909591;29;20048;-62
2021/04/06 07:02:38;;;;;;;1.90;0.65;;;3.10;74.70;;;;;;4909386;29;20060;-62
2021/04/06 07:05:21;;;;;;;7.60;1.45;;;2.90;75.30;;;;;;4909321;29;20347;-62
2021/04/06 07:08:03;;;;;;;5.60;1.70;;;3.00;75.10;;;;;;4909490;29;20055;-62
2021/04/06 07:10:33;;;;;;;1.63;1.02;;;3.10;75.10;;;;;;4908865;29;20376;-62
2021/04/06 07:13:09;;;;;;;4.10;0.85;;;3.20;74.60;;;;;;4909689;29;20064;-62
2021/04/06 07:15:39;;;;;;;2.03;0.68;;;3.40;74.50;;;;;;4909670;29;20048;-62
2021/04/06 07:18:11;;;;;;;3.22;0.90;;;3.40;74.40;;;;;;4909027;29;20111;-62
2021/04/06 07:20:46;;;;;;;2.10;0.70;;;3.30;75.70;;;;;;4908919;29;20082;-62
2021/04/06 07:23:27;;;;;;;2.97;0.85;;;3.10;77.10;;;;;;4909309;29;20252;-62
2021/04/06 07:25:54;;;;;;;1.75;0.80;;;2.80;79.00;;;;;;4908537;29;20059;-62
2021/04/06 07:28:23;;;;;;;5.25;1.08;;;2.80;80.40;;;;;;4915978;29;20060;-62
2021/04/06 07:30:51;;;;;;;4.53;1.48;;;2.90;80.50;;;;;;4923734;29;20056;-62
2021/04/06 07:33:21;;;;;;;3.20;0.95;;;2.70;81.30;;;;;;4909132;29;20316;-63
2021/04/06 07:35:50;;;;;;;3.13;1.85;;;2.60;81.70;;;;;;4908027;29;20056;-62
2021/04/06 07:38:20;;;;;;;3.08;1.05;;;2.40;82.90;;;;;;4921388;29;20547;-62
2021/04/06 07:40:49;;;;;;;4.07;1.00;;;2.40;83.50;;;;;;4907655;29;20104;-64
2021/04/06 07:43:18;;;;;;;2.80;0.80;;;2.30;84.40;;;;;;4904839;29;20060;-62
2021/04/06 07:45:46;;;;;;;3.38;1.13;;;2.50;84.20;;;;;;4905323;29;20190;-61
2021/04/06 07:48:43;;;;;;;1.93;0.90;;;2.40;84.20;;;;;;4905363;29;20063;-62
2021/04/06 07:51:17;;;;;;;2.75;0.93;;;2.50;83.90;;;;;;4906850;29;20371;-62
2021/04/06 07:54:02;;;;;;;3.00;0.95;;;2.70;84.00;;;;;;4906807;29;20075;-62
2021/04/06 07:56:49;;;;;;;3.20;1.50;;;3.00;83.70;;;;;;4905956;29;20601;-62
2021/04/06 07:59:44;;;;;;;3.78;1.45;;;3.30;82.10;;;;;;4905682;29;20060;-61
2021/04/06 08:02:31;;;;;;;2.63;1.40;;;3.50;78.90;;;;;;4902267;29;20056;-62
2021/04/06 08:05:07;;;;;;;1.85;0.60;;;3.40;78.00;;;;;;4907271;29;20090;-63
2021/04/06 08:07:36;;;;;;;2.95;1.10;;;3.60;78.90;;;;;;4906540;29;20362;-62
2021/04/06 08:10:41;;;;;;;2.72;0.95;;;3.60;77.10;;;;;;4906228;29;20187;-62
2021/04/06 08:13:13;;;;;;;1.83;0.60;;;3.40;78.50;;;;;;4906299;29;20160;-63
2021/04/06 08:15:42;;;;;;;2.78;1.13;;;3.40;78.70;;;;;;4921546;29;20060;-63
2021/04/06 08:18:15;;;;;;;4.60;1.20;;;3.40;77.90;;;;;;4906955;29;20223;-63
2021/04/06 08:20:46;;;;;;;2.63;0.88;;;3.20;78.40;;;;;;4906586;29;20061;-62
2021/04/06 08:23:42;;;;;;;3.75;1.35;;;3.50;77.80;;;;;;4907160;29;20096;-63
2021/04/06 08:26:26;;;;;;;4.57;1.58;;;3.60;77.90;;;;;;4906776;29;20052;-62
2021/04/06 08:28:54;;;;;;;7.47;1.58;;;3.80;76.70;;;;;;4907311;29;20060;-62
2021/04/06 08:31:30;;;;;;;4.10;1.20;;;4.00;76.00;;;;;;4909056;29;20060;-63
2021/04/06 08:34:29;;;;;;;3.35;1.88;;;3.90;77.40;;;;;;4909081;29;20053;-62
2021/04/06 08:37:20;;;;;;;3.75;1.23;;;3.90;75.50;;;;;;4841118;29;20559;-62
2021/04/06 08:39:49;;;;;;;3.25;1.38;;;4.00;76.70;;;;;;4901189;29;21028;-62
2021/04/06 08:42:19;;;;;;;2.72;1.30;;;4.20;75.10;;;;;;4907684;29;20052;-62
2021/04/06 08:44:56;;;;;;;7.70;2.22;;;4.20;74.30;;;;;;4907553;29;20053;-62
2021/04/06 08:47:40;;;;;;;6.22;1.30;;;4.20;74.00;;;;;;4907792;29;20342;-62
2021/04/06 08:50:09;;;;;;;3.17;1.67;;;4.10;73.50;;;;;;4908202;29;20249;-63
2021/04/06 08:52:38;;;;;;;5.57;1.60;;;3.80;73.70;;;;;;4908925;29;20364;-63
2021/04/06 08:55:08;;;;;;;3.90;1.27;;;3.90;74.30;;;;;;4900674;29;20060;-62
2021/04/06 08:57:38;;;;;;;5.35;1.63;;;3.70;75.20;;;;;;4907108;29;20063;-62
2021/04/06 09:00:13;;;;;;;2.42;1.30;;;3.30;77.30;;;;;;4903419;29;20071;-62
2021/04/06 09:02:42;;;;;;;7.93;1.88;;;3.20;79.00;;;;;;4907338;29;20104;-62
2021/04/06 09:05:11;;;;;;;4.45;1.25;;;3.10;80.40;;;;;;4907885;29;20055;-62
2021/04/06 09:07:41;;;;;;;3.13;0.73;;;3.20;81.60;;;;;;4907813;29;20379;-63
2021/04/06 09:10:11;;;;;;;4.00;1.13;;;3.20;80.10;;;;;;4906599;29;20346;-62
2021/04/06 09:12:42;;;;;;;3.22;0.88;;;3.30;80.10;;;;;;4907451;29;20251;-63
2021/04/06 09:15:11;;;;;;;2.50;1.10;;;3.30;80.30;;;;;;4906342;29;20080;-63
2021/04/06 09:17:40;;;;;;;5.57;1.38;;;3.50;79.90;;;;;;4907638;29;20057;-62
2021/04/06 09:20:10;;;;;;;3.10;0.95;;;3.80;80.50;;;;;;4907658;29;20054;-63
2021/04/06 09:22:38;;;;;;;2.72;1.27;;;4.10;76.10;;;;;;4907245;29;20061;-64
2021/04/06 09:25:18;;;;;;;4.07;1.30;;;4.20;76.30;;;;;;4905982;29;20103;-63
2021/04/06 09:27:51;;;;;;;5.82;1.38;;;4.70;74.50;;;;;;4906600;29;20376;-63
2021/04/06 09:30:21;;;;;;;2.72;0.98;;;5.10;72.10;;;;;;4905704;29;20056;-62
2021/04/06 09:33:01;;;;;;;4.60;1.10;;;4.90;72.60;;;;;;4905481;29;20063;-63
2021/04/06 09:35:29;;;;;;;3.35;1.00;;;4.90;71.40;;;;;;4905519;29;20076;-63
2021/04/06 09:37:59;;;;;;;3.83;1.27;;;5.00;69.70;;;;;;4906410;29;20052;-63
2021/04/06 09:40:32;;;;;;;7.22;1.15;;;4.80;67.90;;;;;;4904825;29;20418;-62
2021/04/06 09:43:01;;;;;;;3.95;1.15;;;4.80;69.00;;;;;;4902561;29;20079;-62
2021/04/06 09:45:30;;;;;;;3.53;0.82;;;5.20;69.40;;;;;;4905527;29;20040;-62
2021/04/06 09:47:59;;;;;;;2.88;0.98;;;5.70;68.40;;;;;;4906430;29;20108;-62
2021/04/06 09:50:27;;;;;;;8.27;1.15;;;5.90;66.30;;;;;;4904446;29;20478;-62
2021/04/06 09:52:56;;;;;;;2.50;1.13;;;5.40;67.30;;;;;;4903960;29;20391;-63
2021/04/06 09:55:25;;;;;;;2.35;0.88;;;5.50;66.00;;;;;;4913475;29;20044;-63
2021/04/06 09:57:59;;;;;;;4.30;0.60;;;5.50;65.10;;;;;;4902707;29;20313;-63
2021/04/06 10:00:29;;;;;;;2.63;0.98;;;5.70;66.50;;;;;;4901816;29;20556;-62
2021/04/06 10:03:05;;;;;;;3.58;0.90;;;5.80;68.00;;;;;;4906031;29;20053;-62
2021/04/06 10:05:34;;;;;;;4.90;0.70;;;6.20;65.20;;;;;;4920556;29;20080;-63
2021/04/06 10:08:01;;;;;;;5.35;1.83;;;6.70;61.90;;;;;;4909418;29;20048;-63
2021/04/06 10:10:32;;;;;;;2.15;0.90;;;6.80;59.40;;;;;;4908572;29;20252;-62
2021/04/06 10:13:03;;;;;;;6.35;2.03;;;6.40;60.30;;;;;;4909122;29;20288;-62
2021/04/06 10:15:32;;;;;;;4.53;1.10;;;6.40;61.60;;;;;;4908738;29;20055;-63
2021/04/06 10:18:08;;;;;;;3.20;1.63;;;6.30;57.70;;;;;;4908894;29;20276;-62
2021/04/06 10:20:38;;;;;;;1.35;0.70;;;7.00;54.50;;;;;;4901372;29;20115;-62
2021/04/06 10:23:06;;;;;;;6.00;0.90;;;7.40;52.70;;;;;;4910300;29;20048;-62
2021/04/06 10:25:37;;;;;;;1.85;1.08;;;10.00;48.60;;;;;;4910456;29;20063;-62
2021/04/06 10:28:08;;;;;;;3.15;0.65;;;11.40;41.80;;;;;;4911433;29;20067;-62
2021/04/06 10:30:39;;;;;;;3.72;0.95;;;11.60;43.20;;;;;;4911242;29;20060;-62
2021/04/06 10:33:10;;;;;;;1.27;0.90;;;10.40;43.70;;;;;;4910707;29;20052;-62
2021/04/06 10:35:44;;;;;;;4.40;1.17;;;9.20;47.40;;;;;;4911395;29;20285;-63
2021/04/06 10:38:18;;;;;;;6.50;1.85;;;9.10;46.20;;;;;;4914802;29;20064;-62
2021/04/06 10:40:48;;;;;;;2.65;1.35;;;8.60;47.00;;;;;;4910368;29;20366;-63
2021/04/06 10:43:20;;;;;;;2.85;0.90;;;7.70;49.60;;;;;;4909997;29;20132;-62
2021/04/06 10:45:50;;;;;;;3.53;1.42;;;7.20;52.60;;;;;;4910737;29;20233;-63
2021/04/06 10:48:19;;;;;;;;;;;8.00;50.80;;;;;;4910538;29;20395;-62
2021/04/06 10:50:49;;;;;;;5.38;1.10;;;9.70;46.60;;;;;;4911796;29;19963;-62
2021/04/06 10:53:26;;;;;;;2.47;0.47;;;9.50;47.40;;;;;;4910686;29;20344;-62
2021/04/06 10:56:05;;;;;;;2.15;0.55;;;9.30;48.30;;;;;;4924975;29;20064;-62
2021/04/06 10:58:36;;;;;;;2.75;0.68;;;8.70;48.90;;;;;;4910895;29;20374;-62
2021/04/06 11:01:09;;;;;;;3.88;0.50;;;8.20;51.40;;;;;;4906781;29;20056;-62
2021/04/06 11:03:43;;;;;;;1.80;0.32;;;9.90;48.20;;;;;;4911513;29;20124;-63
2021/04/06 11:06:19;;;;;;;0.85;0.52;;;12.20;43.50;;;;;;4910923;29;20051;-63
2021/04/06 11:08:50;;;;;;;3.45;0.70;;;14.10;38.50;;;;;;4910691;29;20212;-63
2021/04/06 11:11:23;;;;;;;1.45;0.80;;;15.70;36.40;;;;;;4910099;29;20238;-63
2021/04/06 11:13:54;;;;;;;5.20;0.70;;;16.40;33.30;;;;;;4912693;29;20092;-63
2021/04/06 11:16:23;;;;;;;2.28;0.80;;;15.50;34.30;;;;;;4910413;29;20056;-64
2021/04/06 11:19:07;;;;;;;2.60;0.82;;;13.30;37.00;;;;;;4913829;29;20056;-63
2021/04/06 11:21:43;;;;;;;3.65;0.80;;;11.70;40.90;;;;;;4913143;29;20790;-64
2021/04/06 11:24:13;;;;;;;2.55;0.80;;;10.10;44.00;;;;;;4910034;29;20048;-63
2021/04/06 11:26:42;;;;;;;2.78;0.90;;;8.40;50.90;;;;;;4909886;29;20157;-64
2021/04/06 11:29:14;;;;;;;2.05;0.90;;;7.60;53.70;;;;;;4912004;29;20087;-62
2021/04/06 11:31:44;;;;;;;4.38;0.68;;;6.60;57.40;;;;;;4910067;29;20044;-62
2021/04/06 11:34:13;;;;;;;3.28;0.63;;;5.60;59.90;;;;;;4907304;29;20069;-62
2021/04/06 11:36:42;;;;;;;2.33;0.70;;;4.90;64.60;;;;;;4908005;29;20056;-63
2021/04/06 11:39:13;;;;;;;4.35;0.75;;;5.50;61.20;;;;;;4907629;29;20055;-61
2021/04/06 11:41:41;;;;;;;1.92;0.90;;;7.50;59.40;;;;;;4906588;29;20092;-61
2021/04/06 11:44:11;;;;;;;1.90;0.38;;;10.60;50.70;;;;;;4907694;29;20048;-62
2021/04/06 11:46:39;;;;;;;2.85;0.60;;;12.40;43.60;;;;;;4908671;29;20093;-62
2021/04/06 11:49:10;;;;;;;3.70;0.95;;;12.20;41.70;;;;;;4905892;29;20268;-62
2021/04/06 11:51:38;;;;;;;2.47;0.75;;;13.30;39.80;;;;;;4908578;29;20244;-62
2021/04/06 11:54:09;;;;;;;1.50;0.60;;;14.90;37.30;;;;;;4908023;29;20056;-62
2021/04/06 11:56:37;;;;;;;3.03;0.90;;;16.60;35.80;;;;;;4906460;29;20358;-63
2021/04/06 11:59:05;;;;;;;2.47;0.68;;;17.40;32.90;;;;;;4904758;29;20076;-61
2021/04/06 12:01:35;;;;;;;1.52;0.85;;;18.30;28.90;;;;;;4901595;29;20052;-63
2021/04/06 12:04:14;;;;;;;2.55;0.98;;;14.60;31.30;;;;;;4906897;29;20060;-62
2021/04/06 12:06:42;;;;;;;3.85;0.70;;;12.40;35.30;;;;;;4906898;29;20315;-63
2021/04/06 12:09:10;;;;;;;2.28;0.68;;;11.30;41.00;;;;;;4904238;29;20064;-63
2021/04/06 12:11:39;;;;;;;3.28;1.17;;;12.20;40.40;;;;;;4908525;29;20060;-63
2021/04/06 12:14:07;;;;;;;4.63;1.20;;;13.20;38.00;;;;;;4908678;29;20052;-62
2021/04/06 12:16:36;;;;;;;4.90;0.88;;;16.30;33.00;;;;;;4908102;29;20064;-62
2021/04/06 12:19:04;;;;;;;3.63;0.70;;;18.20;29.80;;;;;;4908495;29;20056;-62
2021/04/06 12:21:32;;;;;;;2.90;0.60;;;19.00;27.20;;;;;;4908311;29;20128;-63
2021/04/06 12:24:00;;;;;;;3.10;1.45;;;14.80;27.60;;;;;;4905898;29;20064;-63
2021/04/06 12:26:32;;;;;;;1.10;0.50;;;13.10;29.00;;;;;;4892156;29;20045;-63
2021/04/06 12:29:02;;;;;;;4.43;1.08;;;10.80;33.40;;;;;;4907624;29;20085;-63
2021/04/06 12:31:31;;;;;;;3.33;0.70;;;10.10;35.80;;;;;;4908718;29;20044;-63
2021/04/06 12:34:03;;;;;;;4.35;0.80;;;9.90;38.00;;;;;;4907869;29;20061;-63
2021/04/06 12:36:31;;;;;;;4.07;0.85;;;9.20;38.10;;;;;;4907031;29;20396;-63
2021/04/06 12:38:58;;;;;;;4.68;1.45;;;9.00;39.30;;;;;;4908129;29;20056;-63
2021/04/06 12:41:25;;;;;;;2.55;1.35;;;8.30;40.20;;;;;;4907028;29;20116;-63
2021/04/06 12:43:53;;;;;;;1.65;0.82;;;7.90;41.80;;;;;;4908109;29;20094;-63
2021/04/06 12:46:20;;;;;;;6.28;0.85;;;7.70;42.50;;;;;;4906134;29;20059;-64
2021/04/06 12:48:48;;;;;;;5.15;1.42;;;7.40;43.70;;;;;;4903282;29;20068;-63
2021/04/06 12:51:17;;;;;;;2.70;1.30;;;7.20;43.80;;;;;;4905812;29;20107;-63
2021/04/06 12:53:44;;;;;;;2.05;1.40;;;6.90;45.20;;;;;;4907424;29;20067;-63
2021/04/06 12:56:13;;;;;;;1.77;0.63;;;6.20;49.10;;;;;;4905920;29;20364;-63
2021/04/06 12:58:42;;;;;;;3.70;0.80;;;5.80;51.70;;;;;;4907427;29;20052;-62
2021/04/06 13:01:10;;;;;;;3.53;0.70;;;7.50;49.90;;;;;;4904234;29;20044;-62
2021/04/06 13:03:39;;;;;;;1.77;0.65;;;10.90;44.60;;;;;;4908423;29;20048;-63
2021/04/06 13:06:07;;;;;;;1.48;0.38;;;12.90;35.20;;;;;;4909611;29;20060;-64
2021/04/06 13:08:36;;;;;;;1.77;0.60;;;15.30;33.60;;;;;;4909641;29;20076;-62
2021/04/06 13:11:06;;;;;;;1.95;0.77;;;13.40;35.50;;;;;;4909929;29;20052;-63
2021/04/06 13:13:34;;;;;;;2.53;1.02;;;11.10;37.00;;;;;;4908637;29;20048;-63
2021/04/06 13:16:05;;;;;;;4.55;1.00;;;10.50;40.10;;;;;;4907223;29;20056;-63